sensor_id;sensor_type;location;lat;lon;timestamp;P1;durP1;ratioP1;P2;durP2;ratioP2
30723;SDS011;17473;52.286;20.930;2022-10-16T00:01:37;18.48;;;12.00;;
30723;SDS011;17473;52.286;20.930;2022-10-16T00:04:04;18.55;;;12.13;;
30723;SDS011;17473;52.286;20.930;2022-10-16T00:06:31;19.92;;;11.60;;
30723;SDS011;17473;52.286;20.930;2022-10-16T00:08:58;18.75;;;10.98;;
30723;SDS011;17473;52.286;20.930;2022-10-16T00:11:27;16.85;;;10.85;;
30723;SDS011;17473;52.286;20.930;2022-10-16T00:14:03;16.38;;;11.32;;
30723;SDS011;17473;52.286;20.930;2022-10-16T00:16:34;16.77;;;10.55;;
30723;SDS011;17473;52.286;20.930;2022-10-16T00:19:01;15.77;;;9.88;;
30723;SDS011;17473;52.286;20.930;2022-10-16T00:21:29;14.30;;;9.25;;
30723;SDS011;17473;52.286;20.930;2022-10-16T00:24:02;13.93;;;9.63;;
30723;SDS011;17473;52.286;20.930;2022-10-16T00:26:32;14.88;;;9.85;;
30723;SDS011;17473;52.286;20.930;2022-10-16T00:29:01;13.93;;;9.43;;
30723;SDS011;17473;52.286;20.930;2022-10-16T00:31:29;14.30;;;9.40;;
30723;SDS011;17473;52.286;20.930;2022-10-16T00:33:56;18.10;;;9.20;;
30723;SDS011;17473;52.286;20.930;2022-10-16T00:36:24;18.48;;;9.65;;
30723;SDS011;17473;52.286;20.930;2022-10-16T00:38:53;13.13;;;9.40;;
30723;SDS011;17473;52.286;20.930;2022-10-16T00:41:23;14.50;;;9.38;;
30723;SDS011;17473;52.286;20.930;2022-10-16T00:43:57;15.50;;;10.13;;
30723;SDS011;17473;52.286;20.930;2022-10-16T00:46:49;14.13;;;8.73;;
30723;SDS011;17473;52.286;20.930;2022-10-16T00:49:17;14.10;;;8.05;;
30723;SDS011;17473;52.286;20.930;2022-10-16T00:51:50;14.30;;;9.50;;
30723;SDS011;17473;52.286;20.930;2022-10-16T00:54:24;12.75;;;9.63;;
30723;SDS011;17473;52.286;20.930;2022-10-16T00:56:56;13.68;;;9.60;;
30723;SDS011;17473;52.286;20.930;2022-10-16T00:59:28;15.00;;;9.60;;
30723;SDS011;17473;52.286;20.930;2022-10-16T01:02:02;13.38;;;9.57;;
30723;SDS011;17473;52.286;20.930;2022-10-16T01:04:35;17.13;;;9.65;;
30723;SDS011;17473;52.286;20.930;2022-10-16T01:07:10;13.35;;;9.43;;
30723;SDS011;17473;52.286;20.930;2022-10-16T01:09:57;17.30;;;10.35;;
30723;SDS011;17473;52.286;20.930;2022-10-16T01:12:43;16.77;;;11.00;;
30723;SDS011;17473;52.286;20.930;2022-10-16T01:15:27;16.77;;;10.80;;
30723;SDS011;17473;52.286;20.930;2022-10-16T01:18:08;17.80;;;11.00;;
30723;SDS011;17473;52.286;20.930;2022-10-16T01:20:54;17.38;;;10.98;;
30723;SDS011;17473;52.286;20.930;2022-10-16T01:23:51;16.48;;;11.00;;
30723;SDS011;17473;52.286;20.930;2022-10-16T01:32:45;17.85;;;11.32;;
30723;SDS011;17473;52.286;20.930;2022-10-16T01:35:42;19.30;;;10.75;;
30723;SDS011;17473;52.286;20.930;2022-10-16T01:38:17;16.50;;;11.43;;
30723;SDS011;17473;52.286;20.930;2022-10-16T01:40:54;16.60;;;10.70;;
30723;SDS011;17473;52.286;20.930;2022-10-16T01:46:51;22.92;;;11.38;;
30723;SDS011;17473;52.286;20.930;2022-10-16T01:49:20;19.80;;;12.18;;
30723;SDS011;17473;52.286;20.930;2022-10-16T01:51:52;20.02;;;11.90;;
30723;SDS011;17473;52.286;20.930;2022-10-16T01:54:25;17.92;;;11.40;;
30723;SDS011;17473;52.286;20.930;2022-10-16T01:56:55;17.05;;;12.40;;
30723;SDS011;17473;52.286;20.930;2022-10-16T01:59:25;16.50;;;11.65;;
30723;SDS011;17473;52.286;20.930;2022-10-16T02:01:56;19.90;;;13.25;;
30723;SDS011;17473;52.286;20.930;2022-10-16T02:04:28;18.00;;;11.82;;
30723;SDS011;17473;52.286;20.930;2022-10-16T02:07:00;20.35;;;12.52;;
30723;SDS011;17473;52.286;20.930;2022-10-16T02:09:28;19.02;;;13.15;;
30723;SDS011;17473;52.286;20.930;2022-10-16T02:11:57;23.92;;;13.07;;
30723;SDS011;17473;52.286;20.930;2022-10-16T02:14:29;20.75;;;11.85;;
30723;SDS011;17473;52.286;20.930;2022-10-16T02:16:57;21.70;;;13.30;;
30723;SDS011;17473;52.286;20.930;2022-10-16T02:19:24;19.15;;;13.32;;
30723;SDS011;17473;52.286;20.930;2022-10-16T02:21:55;19.95;;;13.27;;
30723;SDS011;17473;52.286;20.930;2022-10-16T02:24:39;27.90;;;12.77;;
30723;SDS011;17473;52.286;20.930;2022-10-16T02:30:13;21.63;;;14.43;;
30723;SDS011;17473;52.286;20.930;2022-10-16T02:32:45;20.27;;;13.25;;
30723;SDS011;17473;52.286;20.930;2022-10-16T02:35:15;21.98;;;13.90;;
30723;SDS011;17473;52.286;20.930;2022-10-16T02:37:46;23.17;;;13.85;;
30723;SDS011;17473;52.286;20.930;2022-10-16T02:40:15;21.40;;;14.00;;
30723;SDS011;17473;52.286;20.930;2022-10-16T02:42:50;23.95;;;14.30;;
30723;SDS011;17473;52.286;20.930;2022-10-16T02:45:19;19.08;;;14.05;;
30723;SDS011;17473;52.286;20.930;2022-10-16T02:47:46;24.00;;;14.13;;
30723;SDS011;17473;52.286;20.930;2022-10-16T02:50:13;24.30;;;14.05;;
30723;SDS011;17473;52.286;20.930;2022-10-16T02:52:41;23.10;;;13.43;;
30723;SDS011;17473;52.286;20.930;2022-10-16T02:55:08;19.95;;;13.77;;
30723;SDS011;17473;52.286;20.930;2022-10-16T02:57:35;22.92;;;13.35;;
30723;SDS011;17473;52.286;20.930;2022-10-16T03:00:04;18.60;;;13.65;;
30723;SDS011;17473;52.286;20.930;2022-10-16T03:02:32;21.50;;;13.88;;
30723;SDS011;17473;52.286;20.930;2022-10-16T03:04:59;21.40;;;14.27;;
30723;SDS011;17473;52.286;20.930;2022-10-16T03:07:27;22.17;;;13.55;;
30723;SDS011;17473;52.286;20.930;2022-10-16T03:09:54;21.77;;;13.93;;
30723;SDS011;17473;52.286;20.930;2022-10-16T03:12:21;19.83;;;13.80;;
30723;SDS011;17473;52.286;20.930;2022-10-16T03:14:48;23.10;;;13.70;;
30723;SDS011;17473;52.286;20.930;2022-10-16T03:17:15;18.83;;;14.07;;
30723;SDS011;17473;52.286;20.930;2022-10-16T03:19:43;22.55;;;15.60;;
30723;SDS011;17473;52.286;20.930;2022-10-16T03:22:10;20.13;;;13.90;;
30723;SDS011;17473;52.286;20.930;2022-10-16T03:24:37;21.38;;;13.65;;
30723;SDS011;17473;52.286;20.930;2022-10-16T03:27:03;23.00;;;14.38;;
30723;SDS011;17473;52.286;20.930;2022-10-16T03:29:31;19.83;;;13.77;;
30723;SDS011;17473;52.286;20.930;2022-10-16T03:31:59;21.77;;;14.48;;
30723;SDS011;17473;52.286;20.930;2022-10-16T03:34:26;24.35;;;14.57;;
30723;SDS011;17473;52.286;20.930;2022-10-16T03:36:54;21.52;;;14.32;;
30723;SDS011;17473;52.286;20.930;2022-10-16T03:39:20;21.75;;;15.23;;
30723;SDS011;17473;52.286;20.930;2022-10-16T03:41:47;21.55;;;14.55;;
30723;SDS011;17473;52.286;20.930;2022-10-16T03:44:14;22.50;;;14.18;;
30723;SDS011;17473;52.286;20.930;2022-10-16T03:46:41;20.20;;;13.77;;
30723;SDS011;17473;52.286;20.930;2022-10-16T03:49:08;23.00;;;14.30;;
30723;SDS011;17473;52.286;20.930;2022-10-16T03:51:35;24.85;;;14.82;;
30723;SDS011;17473;52.286;20.930;2022-10-16T03:54:02;20.90;;;14.35;;
30723;SDS011;17473;52.286;20.930;2022-10-16T03:56:29;19.95;;;12.88;;
30723;SDS011;17473;52.286;20.930;2022-10-16T03:58:56;20.42;;;14.20;;
30723;SDS011;17473;52.286;20.930;2022-10-16T04:01:23;21.75;;;14.80;;
30723;SDS011;17473;52.286;20.930;2022-10-16T04:03:50;23.98;;;14.30;;
30723;SDS011;17473;52.286;20.930;2022-10-16T04:06:17;21.02;;;14.27;;
30723;SDS011;17473;52.286;20.930;2022-10-16T04:08:44;21.70;;;13.20;;
30723;SDS011;17473;52.286;20.930;2022-10-16T04:11:12;19.48;;;13.23;;
30723;SDS011;17473;52.286;20.930;2022-10-16T04:13:39;23.38;;;14.48;;
30723;SDS011;17473;52.286;20.930;2022-10-16T04:16:06;21.92;;;14.20;;
30723;SDS011;17473;52.286;20.930;2022-10-16T04:18:33;22.42;;;13.90;;
30723;SDS011;17473;52.286;20.930;2022-10-16T04:21:04;19.65;;;13.88;;
30723;SDS011;17473;52.286;20.930;2022-10-16T04:23:33;20.77;;;13.50;;
30723;SDS011;17473;52.286;20.930;2022-10-16T04:26:00;25.63;;;14.38;;
30723;SDS011;17473;52.286;20.930;2022-10-16T04:28:27;26.95;;;13.57;;
30723;SDS011;17473;52.286;20.930;2022-10-16T04:30:54;22.20;;;15.07;;
30723;SDS011;17473;52.286;20.930;2022-10-16T04:33:21;25.48;;;15.18;;
30723;SDS011;17473;52.286;20.930;2022-10-16T04:35:55;24.58;;;14.25;;
30723;SDS011;17473;52.286;20.930;2022-10-16T04:38:24;19.95;;;13.75;;
30723;SDS011;17473;52.286;20.930;2022-10-16T04:40:51;32.47;;;14.48;;
30723;SDS011;17473;52.286;20.930;2022-10-16T04:43:19;21.10;;;14.38;;
30723;SDS011;17473;52.286;20.930;2022-10-16T04:45:46;24.48;;;14.10;;
30723;SDS011;17473;52.286;20.930;2022-10-16T04:48:13;18.85;;;13.20;;
30723;SDS011;17473;52.286;20.930;2022-10-16T04:50:40;20.67;;;13.63;;
30723;SDS011;17473;52.286;20.930;2022-10-16T04:53:07;20.48;;;13.98;;
30723;SDS011;17473;52.286;20.930;2022-10-16T04:55:34;20.38;;;13.88;;
30723;SDS011;17473;52.286;20.930;2022-10-16T04:58:01;22.00;;;14.32;;
30723;SDS011;17473;52.286;20.930;2022-10-16T05:00:28;21.85;;;14.27;;
30723;SDS011;17473;52.286;20.930;2022-10-16T05:02:55;26.00;;;13.73;;
30723;SDS011;17473;52.286;20.930;2022-10-16T05:05:25;22.77;;;14.07;;
30723;SDS011;17473;52.286;20.930;2022-10-16T05:07:53;19.25;;;13.15;;
30723;SDS011;17473;52.286;20.930;2022-10-16T05:10:20;22.63;;;14.38;;
30723;SDS011;17473;52.286;20.930;2022-10-16T05:12:47;19.17;;;13.77;;
30723;SDS011;17473;52.286;20.930;2022-10-16T05:15:14;27.17;;;15.18;;
30723;SDS011;17473;52.286;20.930;2022-10-16T05:17:41;18.35;;;12.85;;
30723;SDS011;17473;52.286;20.930;2022-10-16T05:20:10;19.63;;;13.05;;
30723;SDS011;17473;52.286;20.930;2022-10-16T05:22:38;21.95;;;13.20;;
30723;SDS011;17473;52.286;20.930;2022-10-16T05:25:05;17.90;;;12.40;;
30723;SDS011;17473;52.286;20.930;2022-10-16T05:27:32;21.58;;;14.23;;
30723;SDS011;17473;52.286;20.930;2022-10-16T05:29:59;24.58;;;14.73;;
30723;SDS011;17473;52.286;20.930;2022-10-16T05:32:26;21.02;;;13.95;;
30723;SDS011;17473;52.286;20.930;2022-10-16T05:34:53;20.63;;;14.48;;
30723;SDS011;17473;52.286;20.930;2022-10-16T05:37:20;19.88;;;13.73;;
30723;SDS011;17473;52.286;20.930;2022-10-16T05:39:47;20.63;;;14.18;;
30723;SDS011;17473;52.286;20.930;2022-10-16T05:42:14;26.83;;;14.10;;
30723;SDS011;17473;52.286;20.930;2022-10-16T05:44:41;18.90;;;13.43;;
30723;SDS011;17473;52.286;20.930;2022-10-16T05:47:08;21.95;;;14.95;;
30723;SDS011;17473;52.286;20.930;2022-10-16T05:49:36;22.40;;;13.88;;
30723;SDS011;17473;52.286;20.930;2022-10-16T05:52:06;20.08;;;13.57;;
30723;SDS011;17473;52.286;20.930;2022-10-16T05:54:33;20.00;;;13.85;;
30723;SDS011;17473;52.286;20.930;2022-10-16T05:57:00;23.25;;;15.07;;
30723;SDS011;17473;52.286;20.930;2022-10-16T05:59:28;19.92;;;13.65;;
30723;SDS011;17473;52.286;20.930;2022-10-16T06:01:55;21.40;;;13.98;;
30723;SDS011;17473;52.286;20.930;2022-10-16T06:04:22;20.75;;;13.38;;
30723;SDS011;17473;52.286;20.930;2022-10-16T06:06:49;20.15;;;13.55;;
30723;SDS011;17473;52.286;20.930;2022-10-16T06:09:16;21.35;;;14.25;;
30723;SDS011;17473;52.286;20.930;2022-10-16T06:11:43;19.92;;;13.38;;
30723;SDS011;17473;52.286;20.930;2022-10-16T06:14:10;18.58;;;13.50;;
30723;SDS011;17473;52.286;20.930;2022-10-16T06:16:37;19.02;;;13.63;;
30723;SDS011;17473;52.286;20.930;2022-10-16T06:19:05;24.05;;;13.88;;
30723;SDS011;17473;52.286;20.930;2022-10-16T06:21:34;25.35;;;14.60;;
30723;SDS011;17473;52.286;20.930;2022-10-16T06:24:01;27.83;;;13.35;;
30723;SDS011;17473;52.286;20.930;2022-10-16T06:26:29;22.25;;;13.80;;
30723;SDS011;17473;52.286;20.930;2022-10-16T06:28:58;22.35;;;13.45;;
30723;SDS011;17473;52.286;20.930;2022-10-16T06:31:26;17.52;;;13.23;;
30723;SDS011;17473;52.286;20.930;2022-10-16T06:33:57;22.13;;;13.38;;
30723;SDS011;17473;52.286;20.930;2022-10-16T06:36:24;33.33;;;17.33;;
30723;SDS011;17473;52.286;20.930;2022-10-16T06:38:52;19.77;;;13.40;;
30723;SDS011;17473;52.286;20.930;2022-10-16T06:41:20;23.52;;;15.38;;
30723;SDS011;17473;52.286;20.930;2022-10-16T06:43:48;18.60;;;12.75;;
30723;SDS011;17473;52.286;20.930;2022-10-16T06:46:17;22.02;;;13.38;;
30723;SDS011;17473;52.286;20.930;2022-10-16T06:48:47;21.52;;;12.65;;
30723;SDS011;17473;52.286;20.930;2022-10-16T06:51:17;18.27;;;12.27;;
30723;SDS011;17473;52.286;20.930;2022-10-16T06:53:49;22.77;;;13.30;;
30723;SDS011;17473;52.286;20.930;2022-10-16T06:56:29;16.67;;;11.32;;
30723;SDS011;17473;52.286;20.930;2022-10-16T06:58:58;18.48;;;11.65;;
30723;SDS011;17473;52.286;20.930;2022-10-16T07:01:26;16.48;;;12.02;;
30723;SDS011;17473;52.286;20.930;2022-10-16T07:03:54;16.35;;;10.82;;
30723;SDS011;17473;52.286;20.930;2022-10-16T07:06:21;15.98;;;11.45;;
30723;SDS011;17473;52.286;20.930;2022-10-16T07:08:50;19.42;;;12.15;;
30723;SDS011;17473;52.286;20.930;2022-10-16T07:11:20;25.45;;;11.25;;
30723;SDS011;17473;52.286;20.930;2022-10-16T07:13:50;18.15;;;12.55;;
30723;SDS011;17473;52.286;20.930;2022-10-16T07:16:25;21.92;;;12.40;;
30723;SDS011;17473;52.286;20.930;2022-10-16T07:18:55;20.85;;;12.73;;
30723;SDS011;17473;52.286;20.930;2022-10-16T07:21:28;16.52;;;12.30;;
30723;SDS011;17473;52.286;20.930;2022-10-16T07:24:01;20.33;;;11.93;;
30723;SDS011;17473;52.286;20.930;2022-10-16T07:26:30;19.73;;;11.95;;
30723;SDS011;17473;52.286;20.930;2022-10-16T07:29:00;18.77;;;11.50;;
30723;SDS011;17473;52.286;20.930;2022-10-16T07:31:27;19.67;;;11.73;;
30723;SDS011;17473;52.286;20.930;2022-10-16T07:33:54;17.88;;;12.30;;
30723;SDS011;17473;52.286;20.930;2022-10-16T07:36:23;21.50;;;12.80;;
30723;SDS011;17473;52.286;20.930;2022-10-16T07:38:50;15.35;;;11.40;;
30723;SDS011;17473;52.286;20.930;2022-10-16T07:41:23;18.02;;;11.95;;
30723;SDS011;17473;52.286;20.930;2022-10-16T07:43:51;22.25;;;13.15;;
30723;SDS011;17473;52.286;20.930;2022-10-16T07:46:21;17.80;;;11.52;;
30723;SDS011;17473;52.286;20.930;2022-10-16T07:48:49;22.75;;;12.10;;
30723;SDS011;17473;52.286;20.930;2022-10-16T07:51:17;19.52;;;12.02;;
30723;SDS011;17473;52.286;20.930;2022-10-16T07:53:49;20.75;;;11.70;;
30723;SDS011;17473;52.286;20.930;2022-10-16T07:56:18;15.98;;;12.00;;
30723;SDS011;17473;52.286;20.930;2022-10-16T07:58:47;15.73;;;10.90;;
30723;SDS011;17473;52.286;20.930;2022-10-16T08:01:16;17.65;;;12.20;;
30723;SDS011;17473;52.286;20.930;2022-10-16T08:03:45;19.15;;;12.43;;
30723;SDS011;17473;52.286;20.930;2022-10-16T08:06:15;18.20;;;11.63;;
30723;SDS011;17473;52.286;20.930;2022-10-16T08:08:47;21.02;;;11.75;;
30723;SDS011;17473;52.286;20.930;2022-10-16T08:11:14;16.15;;;12.32;;
30723;SDS011;17473;52.286;20.930;2022-10-16T08:13:41;31.60;;;22.02;;
30723;SDS011;17473;52.286;20.930;2022-10-16T08:16:08;21.20;;;13.73;;
30723;SDS011;17473;52.286;20.930;2022-10-16T08:18:36;18.98;;;12.18;;
30723;SDS011;17473;52.286;20.930;2022-10-16T08:21:06;21.00;;;13.27;;
30723;SDS011;17473;52.286;20.930;2022-10-16T08:23:47;18.20;;;10.68;;
30723;SDS011;17473;52.286;20.930;2022-10-16T08:26:22;17.10;;;10.98;;
30723;SDS011;17473;52.286;20.930;2022-10-16T08:28:49;20.10;;;11.00;;
30723;SDS011;17473;52.286;20.930;2022-10-16T08:31:18;17.75;;;10.73;;
30723;SDS011;17473;52.286;20.930;2022-10-16T08:33:46;12.75;;;9.93;;
30723;SDS011;17473;52.286;20.930;2022-10-16T08:36:14;17.85;;;10.68;;
30723;SDS011;17473;52.286;20.930;2022-10-16T08:38:42;15.10;;;10.68;;
30723;SDS011;17473;52.286;20.930;2022-10-16T08:46:52;13.93;;;9.85;;
30723;SDS011;17473;52.286;20.930;2022-10-16T08:49:54;14.77;;;9.40;;
30723;SDS011;17473;52.286;20.930;2022-10-16T08:52:29;13.88;;;9.38;;
30723;SDS011;17473;52.286;20.930;2022-10-16T08:55:01;15.88;;;9.73;;
30723;SDS011;17473;52.286;20.930;2022-10-16T08:57:30;14.20;;;9.30;;
30723;SDS011;17473;52.286;20.930;2022-10-16T08:59:59;15.57;;;9.60;;
30723;SDS011;17473;52.286;20.930;2022-10-16T09:02:40;16.30;;;10.23;;
30723;SDS011;17473;52.286;20.930;2022-10-16T09:08:54;13.95;;;9.40;;
30723;SDS011;17473;52.286;20.930;2022-10-16T09:23:07;14.63;;;9.18;;
30723;SDS011;17473;52.286;20.930;2022-10-16T09:25:43;15.40;;;8.95;;
30723;SDS011;17473;52.286;20.930;2022-10-16T09:28:14;14.73;;;8.68;;
30723;SDS011;17473;52.286;20.930;2022-10-16T09:30:43;12.45;;;8.88;;
30723;SDS011;17473;52.286;20.930;2022-10-16T09:33:12;13.63;;;9.40;;
30723;SDS011;17473;52.286;20.930;2022-10-16T09:35:44;13.10;;;8.68;;
30723;SDS011;17473;52.286;20.930;2022-10-16T09:38:27;15.45;;;9.45;;
30723;SDS011;17473;52.286;20.930;2022-10-16T09:41:00;12.00;;;9.15;;
30723;SDS011;17473;52.286;20.930;2022-10-16T09:46:28;15.07;;;8.98;;
30723;SDS011;17473;52.286;20.930;2022-10-16T09:49:03;16.05;;;9.40;;
30723;SDS011;17473;52.286;20.930;2022-10-16T09:51:45;16.38;;;8.68;;
30723;SDS011;17473;52.286;20.930;2022-10-16T09:54:13;12.40;;;8.57;;
30723;SDS011;17473;52.286;20.930;2022-10-16T09:56:46;17.77;;;8.77;;
30723;SDS011;17473;52.286;20.930;2022-10-16T09:59:20;12.38;;;8.95;;
30723;SDS011;17473;52.286;20.930;2022-10-16T10:01:53;11.52;;;8.63;;
30723;SDS011;17473;52.286;20.930;2022-10-16T10:04:23;15.32;;;9.48;;
30723;SDS011;17473;52.286;20.930;2022-10-16T10:06:52;13.20;;;9.10;;
30723;SDS011;17473;52.286;20.930;2022-10-16T10:12:17;14.60;;;8.82;;
30723;SDS011;17473;52.286;20.930;2022-10-16T10:14:53;9.98;;;7.88;;
30723;SDS011;17473;52.286;20.930;2022-10-16T10:17:23;13.32;;;9.10;;
30723;SDS011;17473;52.286;20.930;2022-10-16T10:19:58;18.77;;;8.45;;
30723;SDS011;17473;52.286;20.930;2022-10-16T10:22:48;12.80;;;7.95;;
30723;SDS011;17473;52.286;20.930;2022-10-16T10:25:19;12.48;;;8.52;;
30723;SDS011;17473;52.286;20.930;2022-10-16T10:31:36;13.20;;;9.18;;
30723;SDS011;17473;52.286;20.930;2022-10-16T10:35:15;14.65;;;9.20;;
30723;SDS011;17473;52.286;20.930;2022-10-16T10:38:06;9.60;;;7.93;;
30723;SDS011;17473;52.286;20.930;2022-10-16T10:47:16;11.73;;;8.55;;
30723;SDS011;17473;52.286;20.930;2022-10-16T10:55:50;13.60;;;8.93;;
30723;SDS011;17473;52.286;20.930;2022-10-16T10:58:54;13.75;;;8.82;;
30723;SDS011;17473;52.286;20.930;2022-10-16T11:04:48;16.33;;;8.88;;
30723;SDS011;17473;52.286;20.930;2022-10-16T11:08:00;14.77;;;9.02;;
30723;SDS011;17473;52.286;20.930;2022-10-16T11:13:37;13.30;;;8.73;;
30723;SDS011;17473;52.286;20.930;2022-10-16T11:16:32;10.77;;;8.82;;
30723;SDS011;17473;52.286;20.930;2022-10-16T11:19:14;10.10;;;8.45;;
30723;SDS011;17473;52.286;20.930;2022-10-16T11:21:56;14.18;;;9.07;;
30723;SDS011;17473;52.286;20.930;2022-10-16T11:24:37;17.25;;;8.20;;
30723;SDS011;17473;52.286;20.930;2022-10-16T11:30:35;15.07;;;9.85;;
30723;SDS011;17473;52.286;20.930;2022-10-16T11:36:10;11.95;;;9.02;;
30723;SDS011;17473;52.286;20.930;2022-10-16T11:38:58;17.48;;;9.15;;
30723;SDS011;17473;52.286;20.930;2022-10-16T11:41:37;12.38;;;8.85;;
30723;SDS011;17473;52.286;20.930;2022-10-16T11:50:23;10.32;;;8.40;;
30723;SDS011;17473;52.286;20.930;2022-10-16T11:55:50;10.45;;;8.45;;
30723;SDS011;17473;52.286;20.930;2022-10-16T12:03:40;12.52;;;8.38;;
30723;SDS011;17473;52.286;20.930;2022-10-16T12:11:55;16.45;;;8.95;;
30723;SDS011;17473;52.286;20.930;2022-10-16T12:22:52;9.15;;;7.15;;
30723;SDS011;17473;52.286;20.930;2022-10-16T12:25:37;16.58;;;7.65;;
30723;SDS011;17473;52.286;20.930;2022-10-16T12:30:42;12.35;;;8.27;;
30723;SDS011;17473;52.286;20.930;2022-10-16T12:33:19;16.25;;;7.80;;
30723;SDS011;17473;52.286;20.930;2022-10-16T12:35:52;12.43;;;8.20;;
30723;SDS011;17473;52.286;20.930;2022-10-16T12:38:21;11.70;;;8.77;;
30723;SDS011;17473;52.286;20.930;2022-10-16T12:41:24;9.95;;;8.20;;
30723;SDS011;17473;52.286;20.930;2022-10-16T12:43:57;18.85;;;7.57;;
30723;SDS011;17473;52.286;20.930;2022-10-16T12:51:55;11.25;;;7.43;;
30723;SDS011;17473;52.286;20.930;2022-10-16T12:54:30;11.13;;;7.53;;
30723;SDS011;17473;52.286;20.930;2022-10-16T12:57:09;11.27;;;7.40;;
30723;SDS011;17473;52.286;20.930;2022-10-16T13:00:03;12.63;;;8.02;;
30723;SDS011;17473;52.286;20.930;2022-10-16T13:02:59;12.07;;;7.57;;
30723;SDS011;17473;52.286;20.930;2022-10-16T13:11:45;13.82;;;8.13;;
30723;SDS011;17473;52.286;20.930;2022-10-16T13:17:45;11.63;;;8.43;;
30723;SDS011;17473;52.286;20.930;2022-10-16T13:28:40;15.38;;;9.13;;
30723;SDS011;17473;52.286;20.930;2022-10-16T13:31:13;18.05;;;9.00;;
30723;SDS011;17473;52.286;20.930;2022-10-16T13:33:47;11.23;;;8.52;;
30723;SDS011;17473;52.286;20.930;2022-10-16T13:36:25;12.60;;;8.90;;
30723;SDS011;17473;52.286;20.930;2022-10-16T13:41:57;12.50;;;8.20;;
30723;SDS011;17473;52.286;20.930;2022-10-16T13:44:34;13.65;;;8.52;;
30723;SDS011;17473;52.286;20.930;2022-10-16T13:47:15;9.77;;;7.88;;
30723;SDS011;17473;52.286;20.930;2022-10-16T13:50:05;11.25;;;8.40;;
30723;SDS011;17473;52.286;20.930;2022-10-16T13:52:40;14.10;;;8.13;;
30723;SDS011;17473;52.286;20.930;2022-10-16T13:55:14;14.40;;;7.88;;
30723;SDS011;17473;52.286;20.930;2022-10-16T13:57:44;13.85;;;8.65;;
30723;SDS011;17473;52.286;20.930;2022-10-16T14:02:44;10.98;;;7.07;;
30723;SDS011;17473;52.286;20.930;2022-10-16T14:05:17;11.63;;;7.28;;
30723;SDS011;17473;52.286;20.930;2022-10-16T14:07:47;13.57;;;8.65;;
30723;SDS011;17473;52.286;20.930;2022-10-16T14:10:30;13.60;;;8.25;;
30723;SDS011;17473;52.286;20.930;2022-10-16T14:13:02;11.95;;;7.35;;
30723;SDS011;17473;52.286;20.930;2022-10-16T14:15:35;16.63;;;8.07;;
30723;SDS011;17473;52.286;20.930;2022-10-16T14:18:02;8.85;;;6.95;;
30723;SDS011;17473;52.286;20.930;2022-10-16T14:20:30;12.73;;;7.40;;
30723;SDS011;17473;52.286;20.930;2022-10-16T14:23:01;12.90;;;8.32;;
30723;SDS011;17473;52.286;20.930;2022-10-16T14:25:45;14.10;;;7.50;;
30723;SDS011;17473;52.286;20.930;2022-10-16T14:30:48;15.25;;;7.68;;
30723;SDS011;17473;52.286;20.930;2022-10-16T14:33:25;9.80;;;7.55;;
30723;SDS011;17473;52.286;20.930;2022-10-16T14:38:35;13.75;;;7.70;;
30723;SDS011;17473;52.286;20.930;2022-10-16T14:41:05;10.65;;;7.53;;
30723;SDS011;17473;52.286;20.930;2022-10-16T14:43:36;11.88;;;7.38;;
30723;SDS011;17473;52.286;20.930;2022-10-16T14:46:08;14.48;;;7.30;;
30723;SDS011;17473;52.286;20.930;2022-10-16T14:48:43;11.10;;;7.32;;
30723;SDS011;17473;52.286;20.930;2022-10-16T14:51:16;11.82;;;7.72;;
30723;SDS011;17473;52.286;20.930;2022-10-16T14:53:46;12.73;;;6.93;;
30723;SDS011;17473;52.286;20.930;2022-10-16T14:56:15;10.90;;;7.38;;
30723;SDS011;17473;52.286;20.930;2022-10-16T14:58:47;14.10;;;8.70;;
30723;SDS011;17473;52.286;20.930;2022-10-16T15:01:15;18.02;;;8.05;;
30723;SDS011;17473;52.286;20.930;2022-10-16T15:03:43;11.00;;;7.65;;
30723;SDS011;17473;52.286;20.930;2022-10-16T15:06:11;9.65;;;7.40;;
30723;SDS011;17473;52.286;20.930;2022-10-16T15:08:39;9.90;;;7.75;;
30723;SDS011;17473;52.286;20.930;2022-10-16T15:11:14;10.98;;;8.38;;
30723;SDS011;17473;52.286;20.930;2022-10-16T15:13:44;10.98;;;7.60;;
30723;SDS011;17473;52.286;20.930;2022-10-16T15:16:13;12.57;;;7.90;;
30723;SDS011;17473;52.286;20.930;2022-10-16T15:18:42;15.05;;;9.50;;
30723;SDS011;17473;52.286;20.930;2022-10-16T15:21:21;16.95;;;8.82;;
30723;SDS011;17473;52.286;20.930;2022-10-16T15:23:53;11.43;;;8.07;;
30723;SDS011;17473;52.286;20.930;2022-10-16T15:26:25;17.17;;;8.57;;
30723;SDS011;17473;52.286;20.930;2022-10-16T15:28:54;14.57;;;10.05;;
30723;SDS011;17473;52.286;20.930;2022-10-16T15:31:23;13.25;;;8.57;;
30723;SDS011;17473;52.286;20.930;2022-10-16T15:33:51;14.98;;;8.02;;
30723;SDS011;17473;52.286;20.930;2022-10-16T15:36:25;13.68;;;8.70;;
30723;SDS011;17473;52.286;20.930;2022-10-16T15:38:54;13.85;;;8.82;;
30723;SDS011;17473;52.286;20.930;2022-10-16T15:41:22;12.57;;;8.40;;
30723;SDS011;17473;52.286;20.930;2022-10-16T15:43:49;17.33;;;9.23;;
30723;SDS011;17473;52.286;20.930;2022-10-16T15:46:20;13.63;;;9.38;;
30723;SDS011;17473;52.286;20.930;2022-10-16T15:48:49;16.23;;;8.73;;
30723;SDS011;17473;52.286;20.930;2022-10-16T15:51:17;11.02;;;8.80;;
30723;SDS011;17473;52.286;20.930;2022-10-16T15:53:44;16.17;;;8.73;;
30723;SDS011;17473;52.286;20.930;2022-10-16T15:56:12;15.52;;;8.60;;
30723;SDS011;17473;52.286;20.930;2022-10-16T15:58:40;12.88;;;8.95;;
30723;SDS011;17473;52.286;20.930;2022-10-16T16:01:07;13.05;;;8.73;;
30723;SDS011;17473;52.286;20.930;2022-10-16T16:03:37;16.15;;;9.00;;
30723;SDS011;17473;52.286;20.930;2022-10-16T16:06:07;13.98;;;9.35;;
30723;SDS011;17473;52.286;20.930;2022-10-16T16:08:37;13.20;;;8.40;;
30723;SDS011;17473;52.286;20.930;2022-10-16T16:11:08;11.93;;;8.88;;
30723;SDS011;17473;52.286;20.930;2022-10-16T16:13:38;12.85;;;8.65;;
30723;SDS011;17473;52.286;20.930;2022-10-16T16:16:07;14.48;;;9.00;;
30723;SDS011;17473;52.286;20.930;2022-10-16T16:18:38;13.30;;;9.43;;
30723;SDS011;17473;52.286;20.930;2022-10-16T16:21:06;14.88;;;9.02;;
30723;SDS011;17473;52.286;20.930;2022-10-16T16:23:33;15.57;;;9.18;;
30723;SDS011;17473;52.286;20.930;2022-10-16T16:26:09;11.95;;;8.25;;
30723;SDS011;17473;52.286;20.930;2022-10-16T16:28:41;13.45;;;9.10;;
30723;SDS011;17473;52.286;20.930;2022-10-16T16:31:09;11.05;;;9.23;;
30723;SDS011;17473;52.286;20.930;2022-10-16T16:33:36;14.90;;;10.07;;
30723;SDS011;17473;52.286;20.930;2022-10-16T16:36:04;17.48;;;9.57;;
30723;SDS011;17473;52.286;20.930;2022-10-16T16:38:39;13.95;;;9.63;;
30723;SDS011;17473;52.286;20.930;2022-10-16T16:41:21;11.40;;;8.82;;
30723;SDS011;17473;52.286;20.930;2022-10-16T16:43:52;11.95;;;8.80;;
30723;SDS011;17473;52.286;20.930;2022-10-16T16:46:20;15.38;;;10.02;;
30723;SDS011;17473;52.286;20.930;2022-10-16T16:48:48;13.75;;;8.98;;
30723;SDS011;17473;52.286;20.930;2022-10-16T16:51:19;15.88;;;10.20;;
30723;SDS011;17473;52.286;20.930;2022-10-16T16:53:47;17.35;;;10.20;;
30723;SDS011;17473;52.286;20.930;2022-10-16T16:56:17;14.77;;;9.80;;